sensor_id;sensor_type;location;lat;lon;timestamp;temperature;humidity
42949;DHT22;28587;46.794;23.594;2023-01-10T00:00:55;23.20;53.50
42949;DHT22;28587;46.794;23.594;2023-01-10T00:05:55;23.40;53.50
42949;DHT22;28587;46.794;23.594;2023-01-10T00:10:56;23.60;53.00
42949;DHT22;28587;46.794;23.594;2023-01-10T00:15:57;23.80;52.30
42949;DHT22;28587;46.794;23.594;2023-01-10T00:20:58;24.00;51.70
42949;DHT22;28587;46.794;23.594;2023-01-10T00:25:59;24.10;51.40
42949;DHT22;28587;46.794;23.594;2023-01-10T00:31:00;24.20;51.30
42949;DHT22;28587;46.794;23.594;2023-01-10T00:36:06;24.10;51.20
42949;DHT22;28587;46.794;23.594;2023-01-10T00:41:07;24.10;51.30
42949;DHT22;28587;46.794;23.594;2023-01-10T00:46:28;24.00;51.30
42949;DHT22;28587;46.794;23.594;2023-01-10T00:51:30;23.90;51.40
42949;DHT22;28587;46.794;23.594;2023-01-10T00:56:31;23.90;51.50
42949;DHT22;28587;46.794;23.594;2023-01-10T01:01:32;23.80;51.50
42949;DHT22;28587;46.794;23.594;2023-01-10T01:06:33;23.70;51.60
42949;DHT22;28587;46.794;23.594;2023-01-10T01:11:34;23.70;51.70
42949;DHT22;28587;46.794;23.594;2023-01-10T01:16:35;23.60;51.70
42949;DHT22;28587;46.794;23.594;2023-01-10T01:21:36;23.60;51.70
42949;DHT22;28587;46.794;23.594;2023-01-10T01:26:37;23.60;51.80
42949;DHT22;28587;46.794;23.594;2023-01-10T01:31:39;23.60;51.70
42949;DHT22;28587;46.794;23.594;2023-01-10T01:36:40;23.50;51.80
42949;DHT22;28587;46.794;23.594;2023-01-10T01:41:41;23.50;51.80
42949;DHT22;28587;46.794;23.594;2023-01-10T01:47:22;23.50;51.80
42949;DHT22;28587;46.794;23.594;2023-01-10T01:52:28;23.50;51.80
42949;DHT22;28587;46.794;23.594;2023-01-10T01:57:32;23.50;51.90
42949;DHT22;28587;46.794;23.594;2023-01-10T02:02:37;23.40;51.70
42949;DHT22;28587;46.794;23.594;2023-01-10T02:07:43;23.40;51.70
42949;DHT22;28587;46.794;23.594;2023-01-10T02:12:46;23.40;51.70
42949;DHT22;28587;46.794;23.594;2023-01-10T02:17:50;23.40;51.60
42949;DHT22;28587;46.794;23.594;2023-01-10T02:39:45;23.40;51.70
42949;DHT22;28587;46.794;23.594;2023-01-10T02:44:55;23.30;51.60
42949;DHT22;28587;46.794;23.594;2023-01-10T02:49:57;23.30;51.60
42949;DHT22;28587;46.794;23.594;2023-01-10T02:55:20;23.30;51.60
42949;DHT22;28587;46.794;23.594;2023-01-10T03:10:47;23.20;51.60
42949;DHT22;28587;46.794;23.594;2023-01-10T03:15:50;23.20;51.60
42949;DHT22;28587;46.794;23.594;2023-01-10T03:20:53;23.20;51.60
42949;DHT22;28587;46.794;23.594;2023-01-10T03:25:56;23.20;51.50
42949;DHT22;28587;46.794;23.594;2023-01-10T03:31:03;23.20;51.60
42949;DHT22;28587;46.794;23.594;2023-01-10T03:36:22;23.20;51.60
42949;DHT22;28587;46.794;23.594;2023-01-10T03:41:45;23.20;51.60
42949;DHT22;28587;46.794;23.594;2023-01-10T03:47:12;23.20;51.60
42949;DHT22;28587;46.794;23.594;2023-01-10T03:52:16;23.20;51.60
42949;DHT22;28587;46.794;23.594;2023-01-10T03:57:21;23.10;51.50
42949;DHT22;28587;46.794;23.594;2023-01-10T04:02:24;23.10;51.50
42949;DHT22;28587;46.794;23.594;2023-01-10T04:07:26;23.10;51.50
42949;DHT22;28587;46.794;23.594;2023-01-10T04:12:27;23.10;51.50
42949;DHT22;28587;46.794;23.594;2023-01-10T04:17:28;23.10;51.60
42949;DHT22;28587;46.794;23.594;2023-01-10T04:22:29;23.10;51.90
42949;DHT22;28587;46.794;23.594;2023-01-10T04:27:29;23.10;51.90
42949;DHT22;28587;46.794;23.594;2023-01-10T04:32:31;23.10;51.80
42949;DHT22;28587;46.794;23.594;2023-01-10T04:37:32;23.10;51.90
42949;DHT22;28587;46.794;23.594;2023-01-10T04:42:32;23.10;51.80
42949;DHT22;28587;46.794;23.594;2023-01-10T04:47:33;23.10;52.00
42949;DHT22;28587;46.794;23.594;2023-01-10T04:52:34;23.10;52.60
42949;DHT22;28587;46.794;23.594;2023-01-10T04:57:35;23.10;52.30
42949;DHT22;28587;46.794;23.594;2023-01-10T05:02:36;23.10;52.30
42949;DHT22;28587;46.794;23.594;2023-01-10T05:07:45;23.10;52.20
42949;DHT22;28587;46.794;23.594;2023-01-10T05:12:46;23.10;52.10
42949;DHT22;28587;46.794;23.594;2023-01-10T05:17:47;23.10;52.10
42949;DHT22;28587;46.794;23.594;2023-01-10T05:22:48;23.10;52.10
42949;DHT22;28587;46.794;23.594;2023-01-10T05:27:49;23.10;52.20
42949;DHT22;28587;46.794;23.594;2023-01-10T05:32:50;23.10;52.20
42949;DHT22;28587;46.794;23.594;2023-01-10T05:37:51;23.10;52.90
42949;DHT22;28587;46.794;23.594;2023-01-10T05:42:53;23.10;52.70
42949;DHT22;28587;46.794;23.594;2023-01-10T05:47:54;23.00;52.70
42949;DHT22;28587;46.794;23.594;2023-01-10T05:52:55;23.10;52.70
42949;DHT22;28587;46.794;23.594;2023-01-10T05:57:57;23.10;52.90
42949;DHT22;28587;46.794;23.594;2023-01-10T06:02:58;23.10;52.60
42949;DHT22;28587;46.794;23.594;2023-01-10T06:07:59;23.10;52.90
42949;DHT22;28587;46.794;23.594;2023-01-10T06:13:00;23.10;52.80
42949;DHT22;28587;46.794;23.594;2023-01-10T06:18:01;23.10;52.70
42949;DHT22;28587;46.794;23.594;2023-01-10T06:23:02;23.00;52.20
42949;DHT22;28587;46.794;23.594;2023-01-10T06:28:04;23.00;52.20
42949;DHT22;28587;46.794;23.594;2023-01-10T06:33:06;23.00;51.90
42949;DHT22;28587;46.794;23.594;2023-01-10T06:38:08;23.00;52.10
42949;DHT22;28587;46.794;23.594;2023-01-10T06:43:09;22.90;52.10
42949;DHT22;28587;46.794;23.594;2023-01-10T06:48:10;22.90;52.10
42949;DHT22;28587;46.794;23.594;2023-01-10T06:53:11;22.90;51.80
42949;DHT22;28587;46.794;23.594;2023-01-10T06:58:11;22.90;52.20
42949;DHT22;28587;46.794;23.594;2023-01-10T07:03:17;23.00;52.60
42949;DHT22;28587;46.794;23.594;2023-01-10T07:08:18;23.00;52.50
42949;DHT22;28587;46.794;23.594;2023-01-10T07:13:19;23.00;53.40
42949;DHT22;28587;46.794;23.594;2023-01-10T07:18:20;23.00;53.10
42949;DHT22;28587;46.794;23.594;2023-01-10T07:23:21;23.00;53.00
42949;DHT22;28587;46.794;23.594;2023-01-10T07:28:22;23.10;53.10
42949;DHT22;28587;46.794;23.594;2023-01-10T07:33:26;23.20;52.40
42949;DHT22;28587;46.794;23.594;2023-01-10T07:38:28;23.10;52.20
42949;DHT22;28587;46.794;23.594;2023-01-10T07:43:29;23.10;52.20
42949;DHT22;28587;46.794;23.594;2023-01-10T07:48:30;23.10;51.80
42949;DHT22;28587;46.794;23.594;2023-01-10T07:53:31;23.10;51.00
42949;DHT22;28587;46.794;23.594;2023-01-10T07:58:32;23.10;50.80
42949;DHT22;28587;46.794;23.594;2023-01-10T08:03:34;23.10;50.20
42949;DHT22;28587;46.794;23.594;2023-01-10T08:08:35;23.00;49.90
42949;DHT22;28587;46.794;23.594;2023-01-10T08:13:36;23.00;49.50
42949;DHT22;28587;46.794;23.594;2023-01-10T08:18:37;23.10;49.10
42949;DHT22;28587;46.794;23.594;2023-01-10T08:23:42;23.00;49.00
42949;DHT22;28587;46.794;23.594;2023-01-10T08:28:43;23.00;48.60
42949;DHT22;28587;46.794;23.594;2023-01-10T08:33:43;23.00;48.80
42949;DHT22;28587;46.794;23.594;2023-01-10T08:38:45;23.00;48.10
42949;DHT22;28587;46.794;23.594;2023-01-10T08:43:48;23.00;46.50
42949;DHT22;28587;46.794;23.594;2023-01-10T08:48:50;22.90;46.20
42949;DHT22;28587;46.794;23.594;2023-01-10T08:53:51;22.90;46.50
42949;DHT22;28587;46.794;23.594;2023-01-10T08:58:52;22.90;46.20
42949;DHT22;28587;46.794;23.594;2023-01-10T09:03:53;22.90;47.00
42949;DHT22;28587;46.794;23.594;2023-01-10T09:08:54;22.90;47.00
42949;DHT22;28587;46.794;23.594;2023-01-10T09:13:56;22.90;46.90
42949;DHT22;28587;46.794;23.594;2023-01-10T09:18:57;22.90;47.50
42949;DHT22;28587;46.794;23.594;2023-01-10T09:23:58;22.90;47.60
42949;DHT22;28587;46.794;23.594;2023-01-10T09:28:59;22.90;47.70
42949;DHT22;28587;46.794;23.594;2023-01-10T09:34:00;22.90;47.90
42949;DHT22;28587;46.794;23.594;2023-01-10T09:39:01;22.90;48.10
42949;DHT22;28587;46.794;23.594;2023-01-10T09:54:42;22.90;48.40
42949;DHT22;28587;46.794;23.594;2023-01-10T09:59:44;23.00;48.50
42949;DHT22;28587;46.794;23.594;2023-01-10T10:05:26;23.00;48.40
42949;DHT22;28587;46.794;23.594;2023-01-10T10:10:54;22.90;48.10
42949;DHT22;28587;46.794;23.594;2023-01-10T10:16:05;22.90;48.10
42949;DHT22;28587;46.794;23.594;2023-01-10T10:32:32;22.80;48.50
42949;DHT22;28587;46.794;23.594;2023-01-10T10:37:26;22.80;48.60
42949;DHT22;28587;46.794;23.594;2023-01-10T10:42:37;22.80;48.60
42949;DHT22;28587;46.794;23.594;2023-01-10T10:47:40;22.70;48.80
42949;DHT22;28587;46.794;23.594;2023-01-10T10:52:43;22.70;48.80
42949;DHT22;28587;46.794;23.594;2023-01-10T10:57:46;22.70;48.90
42949;DHT22;28587;46.794;23.594;2023-01-10T11:02:52;22.70;48.90
42949;DHT22;28587;46.794;23.594;2023-01-10T11:07:58;22.70;49.00
42949;DHT22;28587;46.794;23.594;2023-01-10T11:13:12;22.70;49.10
42949;DHT22;28587;46.794;23.594;2023-01-10T11:18:20;22.70;49.10
42949;DHT22;28587;46.794;23.594;2023-01-10T11:28:37;22.70;49.20
42949;DHT22;28587;46.794;23.594;2023-01-10T11:33:40;22.70;49.20
42949;DHT22;28587;46.794;23.594;2023-01-10T11:38:41;22.70;49.20
42949;DHT22;28587;46.794;23.594;2023-01-10T11:43:44;22.70;49.30
42949;DHT22;28587;46.794;23.594;2023-01-10T11:54:02;22.70;49.30
42949;DHT22;28587;46.794;23.594;2023-01-10T11:59:09;22.70;49.30
42949;DHT22;28587;46.794;23.594;2023-01-10T12:04:16;22.70;49.30
42949;DHT22;28587;46.794;23.594;2023-01-10T12:09:44;22.70;49.30
42949;DHT22;28587;46.794;23.594;2023-01-10T12:14:46;22.80;49.40
42949;DHT22;28587;46.794;23.594;2023-01-10T12:19:49;22.80;49.30
42949;DHT22;28587;46.794;23.594;2023-01-10T12:24:53;22.80;49.30
42949;DHT22;28587;46.794;23.594;2023-01-10T12:30:03;22.80;49.30
42949;DHT22;28587;46.794;23.594;2023-01-10T12:35:15;22.80;49.40
42949;DHT22;28587;46.794;23.594;2023-01-10T12:40:37;22.80;49.40
42949;DHT22;28587;46.794;23.594;2023-01-10T12:45:58;22.80;49.40
42949;DHT22;28587;46.794;23.594;2023-01-10T12:51:05;22.80;49.40
42949;DHT22;28587;46.794;23.594;2023-01-10T12:56:11;22.80;50.00
42949;DHT22;28587;46.794;23.594;2023-01-10T13:01:15;22.80;49.30
42949;DHT22;28587;46.794;23.594;2023-01-10T13:06:30;22.80;49.40
42949;DHT22;28587;46.794;23.594;2023-01-10T13:11:39;22.80;49.50
42949;DHT22;28587;46.794;23.594;2023-01-10T13:16:47;22.80;49.40
42949;DHT22;28587;46.794;23.594;2023-01-10T13:21:49;22.80;49.80
42949;DHT22;28587;46.794;23.594;2023-01-10T13:26:56;22.80;49.60
42949;DHT22;28587;46.794;23.594;2023-01-10T13:32:14;22.80;49.60
42949;DHT22;28587;46.794;23.594;2023-01-10T13:37:36;22.80;49.40
42949;DHT22;28587;46.794;23.594;2023-01-10T13:42:38;22.80;49.40
42949;DHT22;28587;46.794;23.594;2023-01-10T13:47:59;22.80;49.50
42949;DHT22;28587;46.794;23.594;2023-01-10T14:03:39;22.80;49.20
42949;DHT22;28587;46.794;23.594;2023-01-10T14:08:48;22.80;49.00
42949;DHT22;28587;46.794;23.594;2023-01-10T14:13:56;22.80;48.90
42949;DHT22;28587;46.794;23.594;2023-01-10T14:18:58;22.80;49.00
42949;DHT22;28587;46.794;23.594;2023-01-10T14:24:00;22.80;49.00
42949;DHT22;28587;46.794;23.594;2023-01-10T14:29:06;22.80;48.90
42949;DHT22;28587;46.794;23.594;2023-01-10T14:34:12;22.80;49.20
42949;DHT22;28587;46.794;23.594;2023-01-10T14:39:14;22.80;49.30
42949;DHT22;28587;46.794;23.594;2023-01-10T14:44:26;22.80;49.30
42949;DHT22;28587;46.794;23.594;2023-01-10T14:49:33;22.80;49.40
42949;DHT22;28587;46.794;23.594;2023-01-10T14:54:35;22.80;49.50
42949;DHT22;28587;46.794;23.594;2023-01-10T14:59:36;22.70;49.60
42949;DHT22;28587;46.794;23.594;2023-01-10T15:04:49;22.80;49.40
42949;DHT22;28587;46.794;23.594;2023-01-10T15:09:56;22.80;49.60
42949;DHT22;28587;46.794;23.594;2023-01-10T15:15:04;22.80;49.50
42949;DHT22;28587;46.794;23.594;2023-01-10T15:20:06;22.80;49.30
42949;DHT22;28587;46.794;23.594;2023-01-10T15:25:31;22.90;49.40
42949;DHT22;28587;46.794;23.594;2023-01-10T15:30:36;22.90;49.50
42949;DHT22;28587;46.794;23.594;2023-01-10T15:35:38;22.90;49.20
42949;DHT22;28587;46.794;23.594;2023-01-10T15:40:40;22.80;49.30
42949;DHT22;28587;46.794;23.594;2023-01-10T15:45:42;22.90;49.40
42949;DHT22;28587;46.794;23.594;2023-01-10T15:50:57;22.90;49.80
42949;DHT22;28587;46.794;23.594;2023-01-10T15:56:10;22.90;49.50
42949;DHT22;28587;46.794;23.594;2023-01-10T16:01:15;22.90;49.40
42949;DHT22;28587;46.794;23.594;2023-01-10T16:06:33;22.90;49.40
42949;DHT22;28587;46.794;23.594;2023-01-10T16:11:39;22.90;49.50
42949;DHT22;28587;46.794;23.594;2023-01-10T16:16:59;22.90;49.40
42949;DHT22;28587;46.794;23.594;2023-01-10T16:22:00;22.90;49.60
42949;DHT22;28587;46.794;23.594;2023-01-10T16:27:08;22.90;49.40
42949;DHT22;28587;46.794;23.594;2023-01-10T16:32:12;22.90;49.50
42949;DHT22;28587;46.794;23.594;2023-01-10T16:37:14;22.90;49.50
42949;DHT22;28587;46.794;23.594;2023-01-10T16:42:15;23.10;49.50
42949;DHT22;28587;46.794;23.594;2023-01-10T16:47:34;23.40;49.40
42949;DHT22;28587;46.794;23.594;2023-01-10T16:52:35;23.80;48.70
42949;DHT22;28587;46.794;23.594;2023-01-10T16:57:36;24.00;48.40
42949;DHT22;28587;46.794;23.594;2023-01-10T17:02:37;24.20;48.30
42949;DHT22;28587;46.794;23.594;2023-01-10T17:07:38;24.20;48.50
42949;DHT22;28587;46.794;23.594;2023-01-10T17:12:40;24.20;48.80
42949;DHT22;28587;46.794;23.594;2023-01-10T17:17:42;24.10;49.20
42949;DHT22;28587;46.794;23.594;2023-01-10T17:22:44;24.00;49.30
42949;DHT22;28587;46.794;23.594;2023-01-10T17:27:44;23.90;49.40
42949;DHT22;28587;46.794;23.594;2023-01-10T17:32:45;23.80;49.50
42949;DHT22;28587;46.794;23.594;2023-01-10T17:37:48;23.90;57.30
42949;DHT22;28587;46.794;23.594;2023-01-10T17:42:49;24.00;61.30
42949;DHT22;28587;46.794;23.594;2023-01-10T17:47:50;24.10;57.70
42949;DHT22;28587;46.794;23.594;2023-01-10T17:52:52;23.90;54.10
42949;DHT22;28587;46.794;23.594;2023-01-10T17:57:53;23.80;54.00
42949;DHT22;28587;46.794;23.594;2023-01-10T18:02:54;23.70;53.60
42949;DHT22;28587;46.794;23.594;2023-01-10T18:07:55;23.60;53.60
42949;DHT22;28587;46.794;23.594;2023-01-10T18:12:56;23.50;53.30
42949;DHT22;28587;46.794;23.594;2023-01-10T18:17:57;23.50;53.10
42949;DHT22;28587;46.794;23.594;2023-01-10T18:22:58;23.40;53.10
42949;DHT22;28587;46.794;23.594;2023-01-10T18:28:18;23.40;53.00
42949;DHT22;28587;46.794;23.594;2023-01-10T18:33:19;23.40;52.80
42949;DHT22;28587;46.794;23.594;2023-01-10T18:38:23;23.40;52.70
42949;DHT22;28587;46.794;23.594;2023-01-10T18:43:24;23.40;52.70
42949;DHT22;28587;46.794;23.594;2023-01-10T18:48:25;23.40;52.50
42949;DHT22;28587;46.794;23.594;2023-01-10T18:53:28;23.30;52.40
42949;DHT22;28587;46.794;23.594;2023-01-10T18:58:34;23.40;52.30
42949;DHT22;28587;46.794;23.594;2023-01-10T19:03:35;23.30;52.10
42949;DHT22;28587;46.794;23.594;2023-01-10T19:08:37;23.30;52.40
42949;DHT22;28587;46.794;23.594;2023-01-10T19:14:02;23.30;52.30
42949;DHT22;28587;46.794;23.594;2023-01-10T19:19:06;23.30;52.40
42949;DHT22;28587;46.794;23.594;2023-01-10T19:24:22;23.30;52.40
42949;DHT22;28587;46.794;23.594;2023-01-10T19:29:24;23.30;52.50
42949;DHT22;28587;46.794;23.594;2023-01-10T19:34:25;23.20;53.20
42949;DHT22;28587;46.794;23.594;2023-01-10T19:39:28;23.20;53.70
42949;DHT22;28587;46.794;23.594;2023-01-10T19:44:29;23.20;53.50
42949;DHT22;28587;46.794;23.594;2023-01-10T19:49:30;23.20;53.40
42949;DHT22;28587;46.794;23.594;2023-01-10T19:54:49;23.30;53.50
42949;DHT22;28587;46.794;23.594;2023-01-10T19:59:53;23.30;53.70
42949;DHT22;28587;46.794;23.594;2023-01-10T20:04:56;23.30;53.60
42949;DHT22;28587;46.794;23.594;2023-01-10T20:09:57;23.30;53.50
42949;DHT22;28587;46.794;23.594;2023-01-10T20:14:58;23.30;52.80
42949;DHT22;28587;46.794;23.594;2023-01-10T20:19:59;23.30;53.10
42949;DHT22;28587;46.794;23.594;2023-01-10T20:25:00;23.30;52.30
42949;DHT22;28587;46.794;23.594;2023-01-10T20:30:02;23.30;52.30
42949;DHT22;28587;46.794;23.594;2023-01-10T20:35:04;23.30;52.20
42949;DHT22;28587;46.794;23.594;2023-01-10T20:40:08;23.30;52.30
42949;DHT22;28587;46.794;23.594;2023-01-10T20:45:11;23.30;52.10
42949;DHT22;28587;46.794;23.594;2023-01-10T20:50:12;23.30;52.00
42949;DHT22;28587;46.794;23.594;2023-01-10T20:55:13;23.30;51.90
42949;DHT22;28587;46.794;23.594;2023-01-10T21:00:19;23.30;51.90
42949;DHT22;28587;46.794;23.594;2023-01-10T21:05:20;23.30;51.80
42949;DHT22;28587;46.794;23.594;2023-01-10T21:10:24;23.30;52.00
42949;DHT22;28587;46.794;23.594;2023-01-10T21:15:26;23.30;52.20
42949;DHT22;28587;46.794;23.594;2023-01-10T21:20:27;23.30;51.80
42949;DHT22;28587;46.794;23.594;2023-01-10T21:25:30;23.30;51.70
42949;DHT22;28587;46.794;23.594;2023-01-10T21:30:31;23.30;51.70
42949;DHT22;28587;46.794;23.594;2023-01-10T21:35:32;23.30;51.70
42949;DHT22;28587;46.794;23.594;2023-01-10T21:40:33;23.30;51.70
42949;DHT22;28587;46.794;23.594;2023-01-10T21:45:35;23.30;51.60
42949;DHT22;28587;46.794;23.594;2023-01-10T21:50:36;23.30;51.60
42949;DHT22;28587;46.794;23.594;2023-01-10T21:55:37;23.30;51.50
42949;DHT22;28587;46.794;23.594;2023-01-10T22:00:41;23.30;51.30
42949;DHT22;28587;46.794;23.594;2023-01-10T22:05:42;23.30;51.00
42949;DHT22;28587;46.794;23.594;2023-01-10T22:10:45;23.20;50.80
42949;DHT22;28587;46.794;23.594;2023-01-10T22:15:46;23.20;50.80
42949;DHT22;28587;46.794;23.594;2023-01-10T22:20:48;23.20;51.30
42949;DHT22;28587;46.794;23.594;2023-01-10T22:26:06;23.20;50.70
42949;DHT22;28587;46.794;23.594;2023-01-10T22:31:08;23.20;50.70
42949;DHT22;28587;46.794;23.594;2023-01-10T22:36:16;23.20;50.70
42949;DHT22;28587;46.794;23.594;2023-01-10T22:41:22;23.20;50.70
42949;DHT22;28587;46.794;23.594;2023-01-10T22:46:27;23.30;50.60
42949;DHT22;28587;46.794;23.594;2023-01-10T22:51:28;23.20;50.50
42949;DHT22;28587;46.794;23.594;2023-01-10T22:56:35;23.20;50.40
42949;DHT22;28587;46.794;23.594;2023-01-10T23:01:36;23.20;50.40
42949;DHT22;28587;46.794;23.594;2023-01-10T23:06:37;23.20;50.40
42949;DHT22;28587;46.794;23.594;2023-01-10T23:11:38;23.20;50.40
42949;DHT22;28587;46.794;23.594;2023-01-10T23:16:39;23.20;50.30
42949;DHT22;28587;46.794;23.594;2023-01-10T23:21:40;23.20;50.60
42949;DHT22;28587;46.794;23.594;2023-01-10T23:26:41;23.20;49.80
42949;DHT22;28587;46.794;23.594;2023-01-10T23:31:42;23.20;50.50
42949;DHT22;28587;46.794;23.594;2023-01-10T23:36:43;23.20;50.20
42949;DHT22;28587;46.794;23.594;2023-01-10T23:41:44;23.10;50.20
42949;DHT22;28587;46.794;23.594;2023-01-10T23:46:44;23.10;50.30
42949;DHT22;28587;46.794;23.594;2023-01-10T23:51:45;23.10;50.70
42949;DHT22;28587;46.794;23.594;2023-01-10T23:56:46;23.00;50.20
